sensor_id;sensor_type;location;lat;lon;timestamp;temperature;humidity
32187;DHT22;18686;53.084;8.872;2023-06-14T00:00:06;15.10;96.70
32187;DHT22;18686;53.084;8.872;2023-06-14T00:02:35;15.10;96.80
32187;DHT22;18686;53.084;8.872;2023-06-14T00:05:04;15.10;97.40
32187;DHT22;18686;53.084;8.872;2023-06-14T00:07:37;15.00;97.40
32187;DHT22;18686;53.084;8.872;2023-06-14T00:10:10;15.00;97.40
32187;DHT22;18686;53.084;8.872;2023-06-14T00:12:40;14.90;97.70
32187;DHT22;18686;53.084;8.872;2023-06-14T00:15:10;14.90;98.00
32187;DHT22;18686;53.084;8.872;2023-06-14T00:17:38;14.90;98.00
32187;DHT22;18686;53.084;8.872;2023-06-14T00:20:08;14.90;98.00
32187;DHT22;18686;53.084;8.872;2023-06-14T00:22:37;14.80;98.30
32187;DHT22;18686;53.084;8.872;2023-06-14T00:25:06;14.80;99.10
32187;DHT22;18686;53.084;8.872;2023-06-14T00:27:55;14.80;98.80
32187;DHT22;18686;53.084;8.872;2023-06-14T00:30:25;14.70;99.10
32187;DHT22;18686;53.084;8.872;2023-06-14T00:32:58;14.70;99.30
32187;DHT22;18686;53.084;8.872;2023-06-14T00:35:26;14.70;99.50
32187;DHT22;18686;53.084;8.872;2023-06-14T00:37:54;14.60;99.90
32187;DHT22;18686;53.084;8.872;2023-06-14T00:40:22;14.60;99.90
32187;DHT22;18686;53.084;8.872;2023-06-14T00:42:51;14.60;99.90
32187;DHT22;18686;53.084;8.872;2023-06-14T00:45:19;14.50;99.90
32187;DHT22;18686;53.084;8.872;2023-06-14T00:57:48;14.40;99.90
32187;DHT22;18686;53.084;8.872;2023-06-14T01:00:17;14.30;99.90
32187;DHT22;18686;53.084;8.872;2023-06-14T01:02:45;14.30;99.90
32187;DHT22;18686;53.084;8.872;2023-06-14T01:05:14;14.30;99.90
32187;DHT22;18686;53.084;8.872;2023-06-14T01:07:56;14.20;99.90
32187;DHT22;18686;53.084;8.872;2023-06-14T01:10:53;14.20;99.90
32187;DHT22;18686;53.084;8.872;2023-06-14T01:13:29;14.20;99.90
32187;DHT22;18686;53.084;8.872;2023-06-14T01:15:59;14.20;99.90
32187;DHT22;18686;53.084;8.872;2023-06-14T01:18:29;14.20;99.90
32187;DHT22;18686;53.084;8.872;2023-06-14T01:21:01;14.10;99.90
32187;DHT22;18686;53.084;8.872;2023-06-14T01:23:34;14.10;99.90
32187;DHT22;18686;53.084;8.872;2023-06-14T01:26:02;14.10;99.90
32187;DHT22;18686;53.084;8.872;2023-06-14T01:28:31;14.10;99.90
32187;DHT22;18686;53.084;8.872;2023-06-14T01:31:02;14.00;99.90
32187;DHT22;18686;53.084;8.872;2023-06-14T01:33:33;14.00;99.90
32187;DHT22;18686;53.084;8.872;2023-06-14T01:36:04;13.90;99.90
32187;DHT22;18686;53.084;8.872;2023-06-14T01:38:34;13.90;99.90
32187;DHT22;18686;53.084;8.872;2023-06-14T01:41:03;13.90;99.90
32187;DHT22;18686;53.084;8.872;2023-06-14T01:43:33;13.90;99.90
32187;DHT22;18686;53.084;8.872;2023-06-14T01:46:04;13.80;99.90
32187;DHT22;18686;53.084;8.872;2023-06-14T01:48:34;13.80;99.90
32187;DHT22;18686;53.084;8.872;2023-06-14T01:51:03;13.80;99.90
32187;DHT22;18686;53.084;8.872;2023-06-14T01:53:35;13.70;99.90
32187;DHT22;18686;53.084;8.872;2023-06-14T01:56:04;13.70;99.90
32187;DHT22;18686;53.084;8.872;2023-06-14T01:58:32;13.70;99.90
32187;DHT22;18686;53.084;8.872;2023-06-14T02:01:00;13.70;99.90
32187;DHT22;18686;53.084;8.872;2023-06-14T02:03:29;13.60;99.90
32187;DHT22;18686;53.084;8.872;2023-06-14T02:05:58;13.60;99.90
32187;DHT22;18686;53.084;8.872;2023-06-14T02:08:26;13.50;99.90
32187;DHT22;18686;53.084;8.872;2023-06-14T02:10:56;13.50;99.90
32187;DHT22;18686;53.084;8.872;2023-06-14T02:13:24;13.40;99.90
32187;DHT22;18686;53.084;8.872;2023-06-14T02:15:52;13.40;99.90
32187;DHT22;18686;53.084;8.872;2023-06-14T02:18:22;13.30;99.90
32187;DHT22;18686;53.084;8.872;2023-06-14T02:20:50;13.30;99.90
32187;DHT22;18686;53.084;8.872;2023-06-14T02:23:19;13.30;99.90
32187;DHT22;18686;53.084;8.872;2023-06-14T02:25:47;13.30;99.90
32187;DHT22;18686;53.084;8.872;2023-06-14T02:28:17;13.20;99.90
32187;DHT22;18686;53.084;8.872;2023-06-14T02:30:45;13.20;99.90
32187;DHT22;18686;53.084;8.872;2023-06-14T02:33:13;13.20;99.90
32187;DHT22;18686;53.084;8.872;2023-06-14T02:35:42;13.20;99.90
32187;DHT22;18686;53.084;8.872;2023-06-14T02:38:10;13.20;99.90
32187;DHT22;18686;53.084;8.872;2023-06-14T02:40:38;13.20;99.90
32187;DHT22;18686;53.084;8.872;2023-06-14T02:43:09;13.10;99.90
32187;DHT22;18686;53.084;8.872;2023-06-14T02:45:39;13.10;99.90
32187;DHT22;18686;53.084;8.872;2023-06-14T02:48:08;13.10;99.90
32187;DHT22;18686;53.084;8.872;2023-06-14T02:50:37;13.10;99.90
32187;DHT22;18686;53.084;8.872;2023-06-14T02:53:05;13.10;99.90
32187;DHT22;18686;53.084;8.872;2023-06-14T02:55:34;13.10;99.90
32187;DHT22;18686;53.084;8.872;2023-06-14T02:58:08;13.10;99.90
32187;DHT22;18686;53.084;8.872;2023-06-14T03:00:38;13.10;99.90
32187;DHT22;18686;53.084;8.872;2023-06-14T03:03:08;13.10;99.90
32187;DHT22;18686;53.084;8.872;2023-06-14T03:05:47;13.00;99.90
32187;DHT22;18686;53.084;8.872;2023-06-14T03:08:19;13.00;99.90
32187;DHT22;18686;53.084;8.872;2023-06-14T03:10:51;13.00;99.90
32187;DHT22;18686;53.084;8.872;2023-06-14T03:13:19;13.00;99.90
32187;DHT22;18686;53.084;8.872;2023-06-14T03:15:52;13.00;99.90
32187;DHT22;18686;53.084;8.872;2023-06-14T03:18:21;13.00;99.90
32187;DHT22;18686;53.084;8.872;2023-06-14T03:20:54;13.00;99.90
32187;DHT22;18686;53.084;8.872;2023-06-14T03:23:25;13.00;99.90
32187;DHT22;18686;53.084;8.872;2023-06-14T03:25:54;13.00;99.90
32187;DHT22;18686;53.084;8.872;2023-06-14T03:28:23;13.00;99.90
32187;DHT22;18686;53.084;8.872;2023-06-14T03:30:53;13.00;99.90
32187;DHT22;18686;53.084;8.872;2023-06-14T03:33:22;13.00;99.90
32187;DHT22;18686;53.084;8.872;2023-06-14T03:35:52;13.00;99.90
32187;DHT22;18686;53.084;8.872;2023-06-14T03:38:21;13.00;99.90
32187;DHT22;18686;53.084;8.872;2023-06-14T03:40:50;13.00;99.90
32187;DHT22;18686;53.084;8.872;2023-06-14T03:43:18;13.00;99.90
32187;DHT22;18686;53.084;8.872;2023-06-14T03:45:47;13.00;99.90
32187;DHT22;18686;53.084;8.872;2023-06-14T03:48:17;13.00;99.90
32187;DHT22;18686;53.084;8.872;2023-06-14T03:50:46;13.10;99.90
32187;DHT22;18686;53.084;8.872;2023-06-14T03:53:14;13.10;99.90
32187;DHT22;18686;53.084;8.872;2023-06-14T03:55:46;13.10;99.90
32187;DHT22;18686;53.084;8.872;2023-06-14T03:58:20;13.10;99.90
32187;DHT22;18686;53.084;8.872;2023-06-14T04:00:48;13.10;99.90
32187;DHT22;18686;53.084;8.872;2023-06-14T04:03:17;13.10;99.90
32187;DHT22;18686;53.084;8.872;2023-06-14T04:05:47;13.20;99.90
32187;DHT22;18686;53.084;8.872;2023-06-14T04:08:17;13.20;99.90
32187;DHT22;18686;53.084;8.872;2023-06-14T04:10:46;13.20;99.90
32187;DHT22;18686;53.084;8.872;2023-06-14T04:13:14;13.20;99.90
32187;DHT22;18686;53.084;8.872;2023-06-14T04:15:43;13.30;99.90
32187;DHT22;18686;53.084;8.872;2023-06-14T04:18:19;13.30;99.90
32187;DHT22;18686;53.084;8.872;2023-06-14T04:20:50;13.40;99.90
32187;DHT22;18686;53.084;8.872;2023-06-14T04:23:20;13.40;99.90
32187;DHT22;18686;53.084;8.872;2023-06-14T04:25:51;13.40;99.90
32187;DHT22;18686;53.084;8.872;2023-06-14T04:28:21;13.40;99.90
32187;DHT22;18686;53.084;8.872;2023-06-14T04:30:57;13.50;99.90
32187;DHT22;18686;53.084;8.872;2023-06-14T04:33:33;13.50;99.90
32187;DHT22;18686;53.084;8.872;2023-06-14T04:36:13;13.60;99.90
32187;DHT22;18686;53.084;8.872;2023-06-14T04:38:47;13.60;99.90
32187;DHT22;18686;53.084;8.872;2023-06-14T04:41:16;13.70;99.90
32187;DHT22;18686;53.084;8.872;2023-06-14T04:43:46;13.80;99.90
32187;DHT22;18686;53.084;8.872;2023-06-14T04:46:16;13.90;99.90
32187;DHT22;18686;53.084;8.872;2023-06-14T04:48:47;13.90;99.90
32187;DHT22;18686;53.084;8.872;2023-06-14T04:51:17;14.00;99.90
32187;DHT22;18686;53.084;8.872;2023-06-14T04:53:47;14.10;99.90
32187;DHT22;18686;53.084;8.872;2023-06-14T04:56:17;14.20;99.90
32187;DHT22;18686;53.084;8.872;2023-06-14T04:58:45;14.40;99.90
32187;DHT22;18686;53.084;8.872;2023-06-14T05:01:13;14.50;99.90
32187;DHT22;18686;53.084;8.872;2023-06-14T05:03:41;14.60;99.90
32187;DHT22;18686;53.084;8.872;2023-06-14T05:06:13;14.70;99.90
32187;DHT22;18686;53.084;8.872;2023-06-14T05:08:42;14.80;99.90
32187;DHT22;18686;53.084;8.872;2023-06-14T05:11:10;14.90;99.90
32187;DHT22;18686;53.084;8.872;2023-06-14T05:13:38;15.00;99.90
32187;DHT22;18686;53.084;8.872;2023-06-14T05:16:09;15.10;99.90
32187;DHT22;18686;53.084;8.872;2023-06-14T05:18:38;15.30;99.90
32187;DHT22;18686;53.084;8.872;2023-06-14T05:21:07;15.40;99.90
32187;DHT22;18686;53.084;8.872;2023-06-14T05:23:37;15.50;99.90
32187;DHT22;18686;53.084;8.872;2023-06-14T05:26:05;15.60;99.90
32187;DHT22;18686;53.084;8.872;2023-06-14T05:28:33;15.70;99.90
32187;DHT22;18686;53.084;8.872;2023-06-14T05:31:06;15.90;99.90
32187;DHT22;18686;53.084;8.872;2023-06-14T05:33:34;16.00;99.90
32187;DHT22;18686;53.084;8.872;2023-06-14T05:36:02;16.10;99.90
32187;DHT22;18686;53.084;8.872;2023-06-14T05:38:33;16.20;99.90
32187;DHT22;18686;53.084;8.872;2023-06-14T05:41:03;16.30;99.90
32187;DHT22;18686;53.084;8.872;2023-06-14T05:43:32;16.40;99.90
32187;DHT22;18686;53.084;8.872;2023-06-14T05:46:00;16.60;99.90
32187;DHT22;18686;53.084;8.872;2023-06-14T05:48:28;16.70;99.90
32187;DHT22;18686;53.084;8.872;2023-06-14T05:50:59;16.80;99.90
32187;DHT22;18686;53.084;8.872;2023-06-14T05:53:45;17.00;99.90
32187;DHT22;18686;53.084;8.872;2023-06-14T05:56:15;17.20;99.90
32187;DHT22;18686;53.084;8.872;2023-06-14T05:58:44;17.40;99.90
32187;DHT22;18686;53.084;8.872;2023-06-14T06:01:13;17.50;98.50
32187;DHT22;18686;53.084;8.872;2023-06-14T06:03:42;17.70;98.40
32187;DHT22;18686;53.084;8.872;2023-06-14T06:06:13;17.80;96.90
32187;DHT22;18686;53.084;8.872;2023-06-14T06:08:42;17.90;95.90
32187;DHT22;18686;53.084;8.872;2023-06-14T06:11:10;18.10;95.50
32187;DHT22;18686;53.084;8.872;2023-06-14T06:13:40;18.20;95.50
32187;DHT22;18686;53.084;8.872;2023-06-14T06:16:08;18.30;94.20
32187;DHT22;18686;53.084;8.872;2023-06-14T06:18:37;18.40;93.20
32187;DHT22;18686;53.084;8.872;2023-06-14T06:21:06;18.50;92.80
32187;DHT22;18686;53.084;8.872;2023-06-14T06:23:34;18.60;92.80
32187;DHT22;18686;53.084;8.872;2023-06-14T06:26:03;18.80;91.20
32187;DHT22;18686;53.084;8.872;2023-06-14T06:28:31;18.90;90.50
32187;DHT22;18686;53.084;8.872;2023-06-14T06:31:01;19.10;89.90
32187;DHT22;18686;53.084;8.872;2023-06-14T06:33:31;19.20;87.60
32187;DHT22;18686;53.084;8.872;2023-06-14T06:35:59;19.40;86.20
32187;DHT22;18686;53.084;8.872;2023-06-14T06:38:27;19.70;84.70
32187;DHT22;18686;53.084;8.872;2023-06-14T06:40:55;19.80;81.00
32187;DHT22;18686;53.084;8.872;2023-06-14T06:43:24;20.00;79.30
32187;DHT22;18686;53.084;8.872;2023-06-14T06:45:54;20.20;76.30
32187;DHT22;18686;53.084;8.872;2023-06-14T06:48:23;20.40;74.40
32187;DHT22;18686;53.084;8.872;2023-06-14T06:50:52;20.50;73.30
32187;DHT22;18686;53.084;8.872;2023-06-14T06:53:20;20.70;71.70
32187;DHT22;18686;53.084;8.872;2023-06-14T06:56:06;21.00;69.40
32187;DHT22;18686;53.084;8.872;2023-06-14T06:58:34;21.10;67.00
32187;DHT22;18686;53.084;8.872;2023-06-14T07:01:02;21.30;66.30
32187;DHT22;18686;53.084;8.872;2023-06-14T07:03:32;21.40;62.50
32187;DHT22;18686;53.084;8.872;2023-06-14T07:06:00;21.60;62.50
32187;DHT22;18686;53.084;8.872;2023-06-14T07:08:29;21.90;61.60
32187;DHT22;18686;53.084;8.872;2023-06-14T07:10:57;22.20;60.50
32187;DHT22;18686;53.084;8.872;2023-06-14T07:13:25;22.40;57.30
32187;DHT22;18686;53.084;8.872;2023-06-14T07:15:54;22.40;54.20
32187;DHT22;18686;53.084;8.872;2023-06-14T07:18:25;22.60;54.70
32187;DHT22;18686;53.084;8.872;2023-06-14T07:20:55;22.80;54.60
32187;DHT22;18686;53.084;8.872;2023-06-14T07:23:23;23.10;53.80
32187;DHT22;18686;53.084;8.872;2023-06-14T07:25:52;23.30;52.00
32187;DHT22;18686;53.084;8.872;2023-06-14T07:28:20;23.40;50.60
32187;DHT22;18686;53.084;8.872;2023-06-14T07:30:48;23.60;50.80
32187;DHT22;18686;53.084;8.872;2023-06-14T07:33:17;23.90;50.40
32187;DHT22;18686;53.084;8.872;2023-06-14T07:35:45;24.10;49.70
32187;DHT22;18686;53.084;8.872;2023-06-14T07:38:16;24.40;48.60
32187;DHT22;18686;53.084;8.872;2023-06-14T07:40:44;24.60;47.40
32187;DHT22;18686;53.084;8.872;2023-06-14T07:43:12;24.70;46.80
32187;DHT22;18686;53.084;8.872;2023-06-14T07:45:41;24.80;46.60
32187;DHT22;18686;53.084;8.872;2023-06-14T07:48:28;25.00;46.70
32187;DHT22;18686;53.084;8.872;2023-06-14T07:50:57;25.10;46.00
32187;DHT22;18686;53.084;8.872;2023-06-14T07:53:26;25.30;45.20
32187;DHT22;18686;53.084;8.872;2023-06-14T07:55:54;25.40;44.80
32187;DHT22;18686;53.084;8.872;2023-06-14T07:58:23;25.60;43.80
32187;DHT22;18686;53.084;8.872;2023-06-14T08:00:51;25.80;43.70
32187;DHT22;18686;53.084;8.872;2023-06-14T08:03:19;26.00;43.00
32187;DHT22;18686;53.084;8.872;2023-06-14T08:05:47;26.20;42.60
32187;DHT22;18686;53.084;8.872;2023-06-14T08:08:16;26.40;42.60
32187;DHT22;18686;53.084;8.872;2023-06-14T08:10:46;26.60;41.50
32187;DHT22;18686;53.084;8.872;2023-06-14T08:13:14;26.80;41.50
32187;DHT22;18686;53.084;8.872;2023-06-14T08:15:43;26.90;39.70
32187;DHT22;18686;53.084;8.872;2023-06-14T08:18:11;27.00;39.00
32187;DHT22;18686;53.084;8.872;2023-06-14T08:20:39;27.00;38.50
32187;DHT22;18686;53.084;8.872;2023-06-14T08:23:08;27.10;38.10
32187;DHT22;18686;53.084;8.872;2023-06-14T08:25:36;27.10;38.40
32187;DHT22;18686;53.084;8.872;2023-06-14T08:28:06;27.20;38.50
32187;DHT22;18686;53.084;8.872;2023-06-14T08:30:34;27.30;38.20
32187;DHT22;18686;53.084;8.872;2023-06-14T08:33:02;27.40;38.00
32187;DHT22;18686;53.084;8.872;2023-06-14T08:35:42;27.70;38.40
32187;DHT22;18686;53.084;8.872;2023-06-14T08:38:11;27.80;36.80
32187;DHT22;18686;53.084;8.872;2023-06-14T08:40:41;27.80;37.00
32187;DHT22;18686;53.084;8.872;2023-06-14T08:43:11;27.90;37.70
32187;DHT22;18686;53.084;8.872;2023-06-14T08:45:39;28.20;38.60
32187;DHT22;18686;53.084;8.872;2023-06-14T08:48:07;28.40;38.30
32187;DHT22;18686;53.084;8.872;2023-06-14T08:50:37;28.60;37.10
32187;DHT22;18686;53.084;8.872;2023-06-14T08:53:10;28.70;37.00
32187;DHT22;18686;53.084;8.872;2023-06-14T08:55:40;28.90;36.80
32187;DHT22;18686;53.084;8.872;2023-06-14T08:58:11;29.20;37.00
32187;DHT22;18686;53.084;8.872;2023-06-14T09:00:42;29.50;35.80
32187;DHT22;18686;53.084;8.872;2023-06-14T09:03:11;29.70;35.40
32187;DHT22;18686;53.084;8.872;2023-06-14T09:05:41;29.90;35.20
32187;DHT22;18686;53.084;8.872;2023-06-14T09:08:11;30.20;35.00
32187;DHT22;18686;53.084;8.872;2023-06-14T09:10:40;30.30;34.60
32187;DHT22;18686;53.084;8.872;2023-06-14T09:13:08;30.50;34.70
32187;DHT22;18686;53.084;8.872;2023-06-14T09:15:38;30.60;33.60
32187;DHT22;18686;53.084;8.872;2023-06-14T09:18:06;31.00;33.60
32187;DHT22;18686;53.084;8.872;2023-06-14T09:20:35;31.30;33.70
32187;DHT22;18686;53.084;8.872;2023-06-14T09:23:04;31.60;33.70
32187;DHT22;18686;53.084;8.872;2023-06-14T09:25:41;31.90;33.30
32187;DHT22;18686;53.084;8.872;2023-06-14T09:28:11;32.00;32.50
32187;DHT22;18686;53.084;8.872;2023-06-14T09:30:40;32.20;32.10
32187;DHT22;18686;53.084;8.872;2023-06-14T09:33:09;32.30;31.70
32187;DHT22;18686;53.084;8.872;2023-06-14T09:35:38;32.50;32.20
32187;DHT22;18686;53.084;8.872;2023-06-14T09:38:06;32.80;31.50
32187;DHT22;18686;53.084;8.872;2023-06-14T09:40:35;32.80;30.90
32187;DHT22;18686;53.084;8.872;2023-06-14T09:43:06;32.60;31.20
32187;DHT22;18686;53.084;8.872;2023-06-14T09:45:39;32.70;31.50
32187;DHT22;18686;53.084;8.872;2023-06-14T09:48:08;32.80;31.00
32187;DHT22;18686;53.084;8.872;2023-06-14T09:50:37;32.50;30.30
32187;DHT22;18686;53.084;8.872;2023-06-14T09:53:07;32.50;31.40
32187;DHT22;18686;53.084;8.872;2023-06-14T09:55:38;32.80;31.10
32187;DHT22;18686;53.084;8.872;2023-06-14T09:58:09;33.30;30.70
32187;DHT22;18686;53.084;8.872;2023-06-14T10:00:41;33.90;30.30
32187;DHT22;18686;53.084;8.872;2023-06-14T10:03:12;34.40;30.00
32187;DHT22;18686;53.084;8.872;2023-06-14T10:05:43;34.70;30.00
32187;DHT22;18686;53.084;8.872;2023-06-14T10:08:14;35.00;29.50
32187;DHT22;18686;53.084;8.872;2023-06-14T10:10:45;35.60;29.30
32187;DHT22;18686;53.084;8.872;2023-06-14T10:13:14;36.40;28.60
32187;DHT22;18686;53.084;8.872;2023-06-14T10:15:55;37.30;28.10
32187;DHT22;18686;53.084;8.872;2023-06-14T10:18:32;37.60;27.40
32187;DHT22;18686;53.084;8.872;2023-06-14T10:21:12;37.90;27.00
32187;DHT22;18686;53.084;8.872;2023-06-14T10:23:43;38.50;27.50
32187;DHT22;18686;53.084;8.872;2023-06-14T10:26:19;38.60;26.90
32187;DHT22;18686;53.084;8.872;2023-06-14T10:28:57;38.70;27.20
32187;DHT22;18686;53.084;8.872;2023-06-14T10:31:44;38.80;26.60
32187;DHT22;18686;53.084;8.872;2023-06-14T10:34:21;38.80;26.30
32187;DHT22;18686;53.084;8.872;2023-06-14T10:37:01;39.10;26.20
32187;DHT22;18686;53.084;8.872;2023-06-14T10:39:31;38.60;26.20
32187;DHT22;18686;53.084;8.872;2023-06-14T10:42:02;38.40;26.20
32187;DHT22;18686;53.084;8.872;2023-06-14T10:44:40;39.00;25.90
32187;DHT22;18686;53.084;8.872;2023-06-14T10:47:21;39.40;26.00
32187;DHT22;18686;53.084;8.872;2023-06-14T10:49:51;40.60;25.60
32187;DHT22;18686;53.084;8.872;2023-06-14T10:52:26;42.00;24.90
32187;DHT22;18686;53.084;8.872;2023-06-14T10:54:59;43.60;24.50
32187;DHT22;18686;53.084;8.872;2023-06-14T10:57:28;44.50;23.80
32187;DHT22;18686;53.084;8.872;2023-06-14T11:00:09;45.00;24.20
32187;DHT22;18686;53.084;8.872;2023-06-14T11:05:55;44.00;23.00
32187;DHT22;18686;53.084;8.872;2023-06-14T11:08:52;42.20;23.70
32187;DHT22;18686;53.084;8.872;2023-06-14T11:11:30;41.50;24.10
32187;DHT22;18686;53.084;8.872;2023-06-14T11:13:59;40.00;24.20
32187;DHT22;18686;53.084;8.872;2023-06-14T11:16:28;38.70;24.90
32187;DHT22;18686;53.084;8.872;2023-06-14T11:18:56;38.50;25.30
32187;DHT22;18686;53.084;8.872;2023-06-14T11:21:26;38.20;25.20
32187;DHT22;18686;53.084;8.872;2023-06-14T11:23:58;37.60;25.10
32187;DHT22;18686;53.084;8.872;2023-06-14T11:26:27;37.40;25.20
32187;DHT22;18686;53.084;8.872;2023-06-14T11:28:56;37.80;25.40
32187;DHT22;18686;53.084;8.872;2023-06-14T11:31:25;39.20;25.10
32187;DHT22;18686;53.084;8.872;2023-06-14T11:33:54;40.70;25.00
32187;DHT22;18686;53.084;8.872;2023-06-14T11:36:27;42.30;24.50
32187;DHT22;18686;53.084;8.872;2023-06-14T11:39:00;41.90;24.20
32187;DHT22;18686;53.084;8.872;2023-06-14T11:41:34;40.70;24.50
32187;DHT22;18686;53.084;8.872;2023-06-14T11:44:02;40.00;25.00
32187;DHT22;18686;53.084;8.872;2023-06-14T11:46:31;40.40;25.20
32187;DHT22;18686;53.084;8.872;2023-06-14T11:48:59;40.70;24.80
32187;DHT22;18686;53.084;8.872;2023-06-14T11:51:32;39.80;24.80
32187;DHT22;18686;53.084;8.872;2023-06-14T11:54:01;39.70;25.60
32187;DHT22;18686;53.084;8.872;2023-06-14T11:56:31;41.60;25.30
32187;DHT22;18686;53.084;8.872;2023-06-14T11:59:01;43.60;24.20
32187;DHT22;18686;53.084;8.872;2023-06-14T12:01:31;45.40;23.40
32187;DHT22;18686;53.084;8.872;2023-06-14T12:03:59;47.00;22.80
32187;DHT22;18686;53.084;8.872;2023-06-14T12:06:31;48.40;22.70
32187;DHT22;18686;53.084;8.872;2023-06-14T12:09:04;48.70;21.90
32187;DHT22;18686;53.084;8.872;2023-06-14T12:11:34;49.20;22.10
32187;DHT22;18686;53.084;8.872;2023-06-14T12:14:04;49.60;21.80
32187;DHT22;18686;53.084;8.872;2023-06-14T12:16:35;50.40;21.80
32187;DHT22;18686;53.084;8.872;2023-06-14T12:19:14;50.30;21.40
32187;DHT22;18686;53.084;8.872;2023-06-14T12:21:46;49.20;21.40
32187;DHT22;18686;53.084;8.872;2023-06-14T12:24:16;46.50;22.00
32187;DHT22;18686;53.084;8.872;2023-06-14T12:26:45;44.10;23.20
32187;DHT22;18686;53.084;8.872;2023-06-14T12:29:14;43.20;23.50
32187;DHT22;18686;53.084;8.872;2023-06-14T12:31:42;42.90;23.20
32187;DHT22;18686;53.084;8.872;2023-06-14T12:34:10;42.20;23.40
32187;DHT22;18686;53.084;8.872;2023-06-14T12:36:41;40.90;23.80
32187;DHT22;18686;53.084;8.872;2023-06-14T12:39:14;39.10;24.50
32187;DHT22;18686;53.084;8.872;2023-06-14T12:41:42;37.50;25.20
32187;DHT22;18686;53.084;8.872;2023-06-14T12:44:11;36.30;25.90
32187;DHT22;18686;53.084;8.872;2023-06-14T12:46:40;35.00;26.80
32187;DHT22;18686;53.084;8.872;2023-06-14T12:49:09;34.00;27.30
32187;DHT22;18686;53.084;8.872;2023-06-14T12:51:39;33.20;28.50
32187;DHT22;18686;53.084;8.872;2023-06-14T12:54:07;32.60;28.20
32187;DHT22;18686;53.084;8.872;2023-06-14T12:56:37;32.10;29.00
32187;DHT22;18686;53.084;8.872;2023-06-14T12:59:06;31.50;29.40
32187;DHT22;18686;53.084;8.872;2023-06-14T13:01:34;31.00;29.70
32187;DHT22;18686;53.084;8.872;2023-06-14T13:04:03;30.40;30.40
32187;DHT22;18686;53.084;8.872;2023-06-14T13:06:32;30.00;30.70
32187;DHT22;18686;53.084;8.872;2023-06-14T13:09:00;29.80;31.40
32187;DHT22;18686;53.084;8.872;2023-06-14T13:11:28;30.60;31.40
32187;DHT22;18686;53.084;8.872;2023-06-14T13:13:58;31.70;30.30
32187;DHT22;18686;53.084;8.872;2023-06-14T13:16:34;32.70;29.60
32187;DHT22;18686;53.084;8.872;2023-06-14T13:19:03;34.10;28.80
32187;DHT22;18686;53.084;8.872;2023-06-14T13:21:31;35.80;27.80
32187;DHT22;18686;53.084;8.872;2023-06-14T13:23:59;36.60;26.90
32187;DHT22;18686;53.084;8.872;2023-06-14T13:26:27;37.40;26.30
32187;DHT22;18686;53.084;8.872;2023-06-14T13:28:56;38.90;26.00
32187;DHT22;18686;53.084;8.872;2023-06-14T13:31:25;40.50;25.00
32187;DHT22;18686;53.084;8.872;2023-06-14T13:33:53;42.40;24.20
32187;DHT22;18686;53.084;8.872;2023-06-14T13:36:22;44.30;23.20
32187;DHT22;18686;53.084;8.872;2023-06-14T13:38:50;45.40;22.70
32187;DHT22;18686;53.084;8.872;2023-06-14T13:41:20;46.90;22.60
32187;DHT22;18686;53.084;8.872;2023-06-14T13:43:48;48.40;22.30
32187;DHT22;18686;53.084;8.872;2023-06-14T13:46:17;49.80;22.20
32187;DHT22;18686;53.084;8.872;2023-06-14T13:48:47;50.00;21.80
32187;DHT22;18686;53.084;8.872;2023-06-14T13:51:15;49.90;21.80
32187;DHT22;18686;53.084;8.872;2023-06-14T13:53:46;49.50;21.60
32187;DHT22;18686;53.084;8.872;2023-06-14T13:56:14;47.90;21.80
32187;DHT22;18686;53.084;8.872;2023-06-14T13:58:42;46.00;22.10
32187;DHT22;18686;53.084;8.872;2023-06-14T14:01:11;44.20;22.60
32187;DHT22;18686;53.084;8.872;2023-06-14T14:03:39;42.50;23.20
32187;DHT22;18686;53.084;8.872;2023-06-14T14:06:09;41.20;23.80
32187;DHT22;18686;53.084;8.872;2023-06-14T14:08:37;40.50;24.50
32187;DHT22;18686;53.084;8.872;2023-06-14T14:11:06;40.90;24.60
32187;DHT22;18686;53.084;8.872;2023-06-14T14:13:36;41.20;24.20
32187;DHT22;18686;53.084;8.872;2023-06-14T14:16:05;43.20;23.90
32187;DHT22;18686;53.084;8.872;2023-06-14T14:18:34;44.30;23.60
32187;DHT22;18686;53.084;8.872;2023-06-14T14:21:03;45.20;22.70
32187;DHT22;18686;53.084;8.872;2023-06-14T14:23:32;44.30;22.60
32187;DHT22;18686;53.084;8.872;2023-06-14T14:26:01;43.60;22.80
32187;DHT22;18686;53.084;8.872;2023-06-14T14:28:31;42.60;23.10
32187;DHT22;18686;53.084;8.872;2023-06-14T14:31:01;41.30;23.50
32187;DHT22;18686;53.084;8.872;2023-06-14T14:33:29;39.90;24.10
32187;DHT22;18686;53.084;8.872;2023-06-14T14:35:57;38.40;25.00
32187;DHT22;18686;53.084;8.872;2023-06-14T14:38:30;36.90;25.70
32187;DHT22;18686;53.084;8.872;2023-06-14T14:41:00;35.60;26.40
32187;DHT22;18686;53.084;8.872;2023-06-14T14:43:29;34.50;27.30
32187;DHT22;18686;53.084;8.872;2023-06-14T14:45:58;33.50;27.90
32187;DHT22;18686;53.084;8.872;2023-06-14T14:48:27;32.70;28.40
32187;DHT22;18686;53.084;8.872;2023-06-14T14:50:55;32.00;29.00
32187;DHT22;18686;53.084;8.872;2023-06-14T14:53:23;31.30;29.10
32187;DHT22;18686;53.084;8.872;2023-06-14T14:55:51;30.90;29.40
32187;DHT22;18686;53.084;8.872;2023-06-14T14:58:21;30.50;29.60
32187;DHT22;18686;53.084;8.872;2023-06-14T15:00:49;30.20;30.20
32187;DHT22;18686;53.084;8.872;2023-06-14T15:03:17;29.90;30.80
32187;DHT22;18686;53.084;8.872;2023-06-14T15:05:47;29.80;30.70
32187;DHT22;18686;53.084;8.872;2023-06-14T15:08:15;29.90;30.80
32187;DHT22;18686;53.084;8.872;2023-06-14T15:10:43;30.10;31.30
32187;DHT22;18686;53.084;8.872;2023-06-14T15:13:12;30.30;31.60
32187;DHT22;18686;53.084;8.872;2023-06-14T15:15:41;30.50;31.10
32187;DHT22;18686;53.084;8.872;2023-06-14T15:18:09;30.50;31.60
32187;DHT22;18686;53.084;8.872;2023-06-14T15:20:38;30.50;30.80
32187;DHT22;18686;53.084;8.872;2023-06-14T15:23:07;30.30;31.00
32187;DHT22;18686;53.084;8.872;2023-06-14T15:25:36;30.00;32.00
32187;DHT22;18686;53.084;8.872;2023-06-14T15:28:04;29.70;31.70
32187;DHT22;18686;53.084;8.872;2023-06-14T15:30:33;29.40;31.80
32187;DHT22;18686;53.084;8.872;2023-06-14T15:33:03;29.30;31.90
32187;DHT22;18686;53.084;8.872;2023-06-14T15:35:31;29.20;31.90
32187;DHT22;18686;53.084;8.872;2023-06-14T15:38:00;29.20;31.80
32187;DHT22;18686;53.084;8.872;2023-06-14T15:40:28;29.20;31.80
32187;DHT22;18686;53.084;8.872;2023-06-14T15:42:56;29.20;32.00
32187;DHT22;18686;53.084;8.872;2023-06-14T15:45:24;29.10;32.10
32187;DHT22;18686;53.084;8.872;2023-06-14T15:47:53;29.20;32.20
32187;DHT22;18686;53.084;8.872;2023-06-14T15:50:23;29.10;32.40
32187;DHT22;18686;53.084;8.872;2023-06-14T15:52:51;28.90;33.00
32187;DHT22;18686;53.084;8.872;2023-06-14T15:55:19;28.80;32.80
32187;DHT22;18686;53.084;8.872;2023-06-14T15:57:47;28.70;33.10
32187;DHT22;18686;53.084;8.872;2023-06-14T16:00:16;28.40;33.10